WMKC/KBR METAR and TAF weather

Enter ICAO airport designator
Station Type Date Time Source
WMKC METAR 2019/12/08 01:00 UTC NOAA

WMKC 080100Z 06012KT 9999 FEW012 SCT020 27/22 Q1014


Station Type Date Time Source
WMKC Decoded METAR 2019/12/08 01:00 UTC NOAA

Kota Bharu, Malaysia (WMKC) 06-10N 102-17E 5M
Dec 07, 2019 - 08:00 PM EST / 2019.12.08 0100 UTC
Wind: from the ENE (060 degrees) at 14 MPH (12 KT):0
Visibility: greater than 7 mile(s):0
Sky conditions: partly cloudy
Temperature: 80 F (27 C)
Dew Point: 71 F (22 C)
Relative Humidity: 74%
Pressure (altimeter): 29.94 in. Hg (1014 hPa)
ob: WMKC 080100Z 06012KT 9999 FEW012 SCT020 27/22 Q1014
cycle: 1

Station Type Date Time Source
WMKC TAF 2019/12/07 18:00 UTC NOAA

TAF WMKC 071700Z 0718/0818 06010KT 9999 FEW020
BECMG 0800/0802 FEW018

Example: see airport list